sensor_id;sensor_type;location;lat;lon;timestamp;temperature;humidity
51007;DHT22;37034;47.886;-3.904;2024-02-04T04:45:18;13.60;99.90
51007;DHT22;37034;47.886;-3.904;2024-02-04T04:47:44;13.60;99.90
51007;DHT22;37034;47.886;-3.904;2024-02-04T04:50:09;13.60;99.90
51007;DHT22;37034;47.886;-3.904;2024-02-04T04:52:38;13.60;99.90
51007;DHT22;37034;47.886;-3.904;2024-02-04T04:55:04;13.60;99.90
51007;DHT22;37034;47.886;-3.904;2024-02-04T04:57:33;13.60;99.90
51007;DHT22;37034;47.886;-3.904;2024-02-04T04:59:58;13.50;99.90
51007;DHT22;37034;47.886;-3.904;2024-02-04T05:02:29;13.50;99.90
51007;DHT22;37034;47.886;-3.904;2024-02-04T05:51:09;13.60;99.90
51007;DHT22;37034;47.886;-3.904;2024-02-04T05:54:04;13.50;99.90
51007;DHT22;37034;47.886;-3.904;2024-02-04T06:01:00;13.50;99.90
51007;DHT22;37034;47.886;-3.904;2024-02-04T06:11:59;13.50;99.90
51007;DHT22;37034;47.886;-3.904;2024-02-04T06:14:54;13.40;99.90
51007;DHT22;37034;47.886;-3.904;2024-02-04T06:17:19;13.40;99.90
51007;DHT22;37034;47.886;-3.904;2024-02-04T06:19:45;13.30;99.90
51007;DHT22;37034;47.886;-3.904;2024-02-04T06:22:11;13.30;99.90
51007;DHT22;37034;47.886;-3.904;2024-02-04T06:24:40;13.30;99.90
51007;DHT22;37034;47.886;-3.904;2024-02-04T06:27:47;13.30;99.90
51007;DHT22;37034;47.886;-3.904;2024-02-04T06:30:23;13.30;99.90
51007;DHT22;37034;47.886;-3.904;2024-02-04T06:32:58;13.30;99.90
51007;DHT22;37034;47.886;-3.904;2024-02-04T06:53:23;13.50;99.90
51007;DHT22;37034;47.886;-3.904;2024-02-04T06:59:56;13.50;99.90
51007;DHT22;37034;47.886;-3.904;2024-02-04T07:17:23;13.30;99.90
51007;DHT22;37034;47.886;-3.904;2024-02-04T07:20:32;13.20;99.90
51007;DHT22;37034;47.886;-3.904;2024-02-04T07:29:40;13.30;99.90
51007;DHT22;37034;47.886;-3.904;2024-02-04T07:32:49;13.40;99.90
51007;DHT22;37034;47.886;-3.904;2024-02-04T07:39:09;13.40;99.90
51007;DHT22;37034;47.886;-3.904;2024-02-04T07:41:50;13.40;99.90
51007;DHT22;37034;47.886;-3.904;2024-02-04T07:44:59;13.40;99.90
51007;DHT22;37034;47.886;-3.904;2024-02-04T07:48:07;13.30;99.90
51007;DHT22;37034;47.886;-3.904;2024-02-04T07:50:53;13.30;99.90
51007;DHT22;37034;47.886;-3.904;2024-02-04T07:57:29;13.40;99.90
51007;DHT22;37034;47.886;-3.904;2024-02-04T08:00:38;13.40;99.90
51007;DHT22;37034;47.886;-3.904;2024-02-04T08:03:22;13.40;99.90
51007;DHT22;37034;47.886;-3.904;2024-02-04T08:06:11;13.40;99.90
51007;DHT22;37034;47.886;-3.904;2024-02-04T08:08:59;13.40;99.90
51007;DHT22;37034;47.886;-3.904;2024-02-04T08:11:38;13.40;99.90
51007;DHT22;37034;47.886;-3.904;2024-02-04T08:14:15;13.40;99.90
51007;DHT22;37034;47.886;-3.904;2024-02-04T08:17:25;13.40;99.90
51007;DHT22;37034;47.886;-3.904;2024-02-04T08:27:43;13.50;99.90
51007;DHT22;37034;47.886;-3.904;2024-02-04T08:30:41;13.50;99.90
51007;DHT22;37034;47.886;-3.904;2024-02-04T08:33:33;13.50;99.90
51007;DHT22;37034;47.886;-3.904;2024-02-04T08:36:41;13.50;99.90
51007;DHT22;37034;47.886;-3.904;2024-02-04T08:39:33;13.50;99.90
51007;DHT22;37034;47.886;-3.904;2024-02-04T08:42:41;13.60;99.90
51007;DHT22;37034;47.886;-3.904;2024-02-04T08:45:10;13.60;99.90
51007;DHT22;37034;47.886;-3.904;2024-02-04T09:28:18;14.00;99.90
51007;DHT22;37034;47.886;-3.904;2024-02-04T09:30:46;14.00;99.90
51007;DHT22;37034;47.886;-3.904;2024-02-04T09:33:21;14.00;99.90
51007;DHT22;37034;47.886;-3.904;2024-02-04T09:36:34;14.00;99.90
51007;DHT22;37034;47.886;-3.904;2024-02-04T09:49:42;14.00;99.90
51007;DHT22;37034;47.886;-3.904;2024-02-04T09:59:36;14.10;99.90
51007;DHT22;37034;47.886;-3.904;2024-02-04T10:27:11;14.20;99.90
51007;DHT22;37034;47.886;-3.904;2024-02-04T10:29:37;14.50;99.90
51007;DHT22;37034;47.886;-3.904;2024-02-04T10:32:33;14.40;99.90
51007;DHT22;37034;47.886;-3.904;2024-02-04T10:35:03;14.30;99.90
51007;DHT22;37034;47.886;-3.904;2024-02-04T10:37:52;14.30;99.90
51007;DHT22;37034;47.886;-3.904;2024-02-04T10:40:21;14.30;99.90
51007;DHT22;37034;47.886;-3.904;2024-02-04T10:42:54;14.30;99.90
51007;DHT22;37034;47.886;-3.904;2024-02-04T10:45:24;14.30;99.90
51007;DHT22;37034;47.886;-3.904;2024-02-04T10:47:56;14.40;99.90
51007;DHT22;37034;47.886;-3.904;2024-02-04T10:50:27;14.40;99.90
51007;DHT22;37034;47.886;-3.904;2024-02-04T10:52:58;14.40;99.90
51007;DHT22;37034;47.886;-3.904;2024-02-04T10:55:32;14.40;99.90
51007;DHT22;37034;47.886;-3.904;2024-02-04T10:57:58;14.40;99.90
51007;DHT22;37034;47.886;-3.904;2024-02-04T11:00:43;14.40;99.90
51007;DHT22;37034;47.886;-3.904;2024-02-04T11:03:38;14.50;99.90
51007;DHT22;37034;47.886;-3.904;2024-02-04T11:06:08;14.50;99.90
51007;DHT22;37034;47.886;-3.904;2024-02-04T11:08:35;14.60;99.90
51007;DHT22;37034;47.886;-3.904;2024-02-04T11:11:01;14.70;99.90
51007;DHT22;37034;47.886;-3.904;2024-02-04T11:13:30;14.60;99.90
51007;DHT22;37034;47.886;-3.904;2024-02-04T11:15:58;14.60;99.90
51007;DHT22;37034;47.886;-3.904;2024-02-04T11:27:05;14.70;99.90
51007;DHT22;37034;47.886;-3.904;2024-02-04T11:29:31;14.70;99.90
51007;DHT22;37034;47.886;-3.904;2024-02-04T11:31:57;14.80;99.90
51007;DHT22;37034;47.886;-3.904;2024-02-04T11:34:30;14.70;99.90
51007;DHT22;37034;47.886;-3.904;2024-02-04T11:37:13;14.70;99.90
51007;DHT22;37034;47.886;-3.904;2024-02-04T11:39:48;14.70;99.90
51007;DHT22;37034;47.886;-3.904;2024-02-04T11:42:35;14.70;99.90
51007;DHT22;37034;47.886;-3.904;2024-02-04T11:45:10;14.80;99.90
51007;DHT22;37034;47.886;-3.904;2024-02-04T11:47:37;14.70;99.90
51007;DHT22;37034;47.886;-3.904;2024-02-04T11:50:09;14.60;99.90
51007;DHT22;37034;47.886;-3.904;2024-02-04T11:52:36;14.60;99.90
51007;DHT22;37034;47.886;-3.904;2024-02-04T11:55:02;14.60;99.90
51007;DHT22;37034;47.886;-3.904;2024-02-04T11:57:29;14.60;99.90
51007;DHT22;37034;47.886;-3.904;2024-02-04T12:14:31;14.50;99.90
51007;DHT22;37034;47.886;-3.904;2024-02-04T12:16:57;14.40;99.90
51007;DHT22;37034;47.886;-3.904;2024-02-04T12:19:32;14.40;99.90
51007;DHT22;37034;47.886;-3.904;2024-02-04T12:22:00;14.30;99.90
51007;DHT22;37034;47.886;-3.904;2024-02-04T12:24:33;14.30;99.90
51007;DHT22;37034;47.886;-3.904;2024-02-04T12:27:08;14.30;99.90
51007;DHT22;37034;47.886;-3.904;2024-02-04T12:29:44;14.40;99.90
51007;DHT22;37034;47.886;-3.904;2024-02-04T12:35:17;14.30;99.90
51007;DHT22;37034;47.886;-3.904;2024-02-04T12:37:52;14.30;99.90
51007;DHT22;37034;47.886;-3.904;2024-02-04T12:43:55;14.40;99.90
51007;DHT22;37034;47.886;-3.904;2024-02-04T12:46:24;14.50;99.90
51007;DHT22;37034;47.886;-3.904;2024-02-04T12:49:01;14.50;99.90
51007;DHT22;37034;47.886;-3.904;2024-02-04T12:51:28;14.50;99.90
51007;DHT22;37034;47.886;-3.904;2024-02-04T12:54:17;14.50;99.90
51007;DHT22;37034;47.886;-3.904;2024-02-04T12:56:50;14.50;99.90
51007;DHT22;37034;47.886;-3.904;2024-02-04T12:59:35;14.40;99.90
51007;DHT22;37034;47.886;-3.904;2024-02-04T13:02:07;14.40;99.90
51007;DHT22;37034;47.886;-3.904;2024-02-04T13:07:00;14.60;99.90
51007;DHT22;37034;47.886;-3.904;2024-02-04T13:09:25;14.60;99.90
51007;DHT22;37034;47.886;-3.904;2024-02-04T13:12:03;14.60;99.90
51007;DHT22;37034;47.886;-3.904;2024-02-04T13:14:32;14.50;99.90
51007;DHT22;37034;47.886;-3.904;2024-02-04T13:16:58;14.50;99.90
51007;DHT22;37034;47.886;-3.904;2024-02-04T13:19:24;14.50;99.90
51007;DHT22;37034;47.886;-3.904;2024-02-04T13:21:49;14.50;99.90
51007;DHT22;37034;47.886;-3.904;2024-02-04T13:24:15;14.50;99.90
51007;DHT22;37034;47.886;-3.904;2024-02-04T13:26:41;14.40;99.90
51007;DHT22;37034;47.886;-3.904;2024-02-04T13:29:06;14.30;99.90
51007;DHT22;37034;47.886;-3.904;2024-02-04T13:31:33;14.20;99.90
51007;DHT22;37034;47.886;-3.904;2024-02-04T13:33:58;14.30;99.90
51007;DHT22;37034;47.886;-3.904;2024-02-04T13:36:24;14.30;99.90
51007;DHT22;37034;47.886;-3.904;2024-02-04T13:38:53;14.40;99.90
51007;DHT22;37034;47.886;-3.904;2024-02-04T13:41:18;14.40;99.90
51007;DHT22;37034;47.886;-3.904;2024-02-04T13:43:47;14.40;99.90
51007;DHT22;37034;47.886;-3.904;2024-02-04T13:46:13;14.30;99.90
51007;DHT22;37034;47.886;-3.904;2024-02-04T13:48:41;14.40;99.90
51007;DHT22;37034;47.886;-3.904;2024-02-04T13:51:10;14.40;99.90
51007;DHT22;37034;47.886;-3.904;2024-02-04T13:53:36;14.40;99.90
51007;DHT22;37034;47.886;-3.904;2024-02-04T13:56:02;14.40;99.90
51007;DHT22;37034;47.886;-3.904;2024-02-04T13:58:27;14.50;99.90
51007;DHT22;37034;47.886;-3.904;2024-02-04T14:00:53;14.50;99.90
51007;DHT22;37034;47.886;-3.904;2024-02-04T14:03:19;14.50;99.90
51007;DHT22;37034;47.886;-3.904;2024-02-04T14:05:45;14.60;99.90
51007;DHT22;37034;47.886;-3.904;2024-02-04T14:08:10;14.70;99.90
51007;DHT22;37034;47.886;-3.904;2024-02-04T14:10:46;14.60;99.90
51007;DHT22;37034;47.886;-3.904;2024-02-04T14:13:17;14.60;99.90
51007;DHT22;37034;47.886;-3.904;2024-02-04T14:16:17;14.70;99.90
51007;DHT22;37034;47.886;-3.904;2024-02-04T14:19:18;14.70;99.90
51007;DHT22;37034;47.886;-3.904;2024-02-04T14:24:57;14.80;99.90
51007;DHT22;37034;47.886;-3.904;2024-02-04T14:27:25;14.70;99.90
51007;DHT22;37034;47.886;-3.904;2024-02-04T14:29:53;14.70;99.90
51007;DHT22;37034;47.886;-3.904;2024-02-04T14:32:38;14.60;99.90
51007;DHT22;37034;47.886;-3.904;2024-02-04T14:35:14;14.50;99.90
51007;DHT22;37034;47.886;-3.904;2024-02-04T14:37:44;14.60;99.90
51007;DHT22;37034;47.886;-3.904;2024-02-04T14:40:28;14.50;99.90
51007;DHT22;37034;47.886;-3.904;2024-02-04T14:43:06;14.60;99.90
51007;DHT22;37034;47.886;-3.904;2024-02-04T14:45:38;14.60;99.90
51007;DHT22;37034;47.886;-3.904;2024-02-04T14:48:43;14.60;99.90
51007;DHT22;37034;47.886;-3.904;2024-02-04T14:51:51;14.50;99.90
51007;DHT22;37034;47.886;-3.904;2024-02-04T15:13:14;14.80;99.90
51007;DHT22;37034;47.886;-3.904;2024-02-04T15:23:00;14.80;99.90
51007;DHT22;37034;47.886;-3.904;2024-02-04T15:26:00;14.70;99.90
51007;DHT22;37034;47.886;-3.904;2024-02-04T15:29:04;14.70;99.90
51007;DHT22;37034;47.886;-3.904;2024-02-04T15:31:53;14.70;99.90
51007;DHT22;37034;47.886;-3.904;2024-02-04T15:34:43;14.70;99.90
51007;DHT22;37034;47.886;-3.904;2024-02-04T15:37:23;14.70;99.90
51007;DHT22;37034;47.886;-3.904;2024-02-04T15:40:09;14.70;99.90
51007;DHT22;37034;47.886;-3.904;2024-02-04T15:42:36;14.70;99.90
51007;DHT22;37034;47.886;-3.904;2024-02-04T15:45:01;14.70;99.90
51007;DHT22;37034;47.886;-3.904;2024-02-04T15:47:31;14.70;99.90
51007;DHT22;37034;47.886;-3.904;2024-02-04T15:50:08;14.70;99.90
51007;DHT22;37034;47.886;-3.904;2024-02-04T15:52:34;14.60;99.90
51007;DHT22;37034;47.886;-3.904;2024-02-04T15:55:00;14.70;99.90
51007;DHT22;37034;47.886;-3.904;2024-02-04T15:57:33;14.70;99.90
51007;DHT22;37034;47.886;-3.904;2024-02-04T16:00:02;14.80;99.90
51007;DHT22;37034;47.886;-3.904;2024-02-04T16:02:37;14.70;99.90
51007;DHT22;37034;47.886;-3.904;2024-02-04T16:05:03;14.70;99.90
51007;DHT22;37034;47.886;-3.904;2024-02-04T16:07:28;14.80;99.90
51007;DHT22;37034;47.886;-3.904;2024-02-04T16:09:54;14.80;99.90
51007;DHT22;37034;47.886;-3.904;2024-02-04T16:12:21;14.80;99.90
51007;DHT22;37034;47.886;-3.904;2024-02-04T16:14:51;14.80;99.90
51007;DHT22;37034;47.886;-3.904;2024-02-04T16:17:20;14.80;99.90
51007;DHT22;37034;47.886;-3.904;2024-02-04T16:19:47;14.80;99.90
51007;DHT22;37034;47.886;-3.904;2024-02-04T16:22:16;14.80;99.90
51007;DHT22;37034;47.886;-3.904;2024-02-04T16:24:46;14.80;99.90
51007;DHT22;37034;47.886;-3.904;2024-02-04T16:27:12;14.80;99.90
51007;DHT22;37034;47.886;-3.904;2024-02-04T16:29:39;14.70;99.90
51007;DHT22;37034;47.886;-3.904;2024-02-04T16:32:07;14.70;99.90
51007;DHT22;37034;47.886;-3.904;2024-02-04T16:34:33;14.70;99.90
51007;DHT22;37034;47.886;-3.904;2024-02-04T16:37:01;14.70;99.90
51007;DHT22;37034;47.886;-3.904;2024-02-04T16:39:28;14.60;99.90
51007;DHT22;37034;47.886;-3.904;2024-02-04T16:41:54;14.60;99.90
51007;DHT22;37034;47.886;-3.904;2024-02-04T16:44:20;14.60;99.90
51007;DHT22;37034;47.886;-3.904;2024-02-04T16:46:45;14.60;99.90
51007;DHT22;37034;47.886;-3.904;2024-02-04T16:49:11;14.60;99.90
51007;DHT22;37034;47.886;-3.904;2024-02-04T16:51:43;14.60;99.90
51007;DHT22;37034;47.886;-3.904;2024-02-04T16:54:09;14.70;99.90
51007;DHT22;37034;47.886;-3.904;2024-02-04T16:56:36;14.70;99.90
51007;DHT22;37034;47.886;-3.904;2024-02-04T16:59:04;14.70;99.90
51007;DHT22;37034;47.886;-3.904;2024-02-04T17:01:31;14.60;99.90
51007;DHT22;37034;47.886;-3.904;2024-02-04T17:03:58;14.60;99.90
51007;DHT22;37034;47.886;-3.904;2024-02-04T17:06:26;14.60;99.90
51007;DHT22;37034;47.886;-3.904;2024-02-04T17:08:54;14.60;99.90
51007;DHT22;37034;47.886;-3.904;2024-02-04T17:11:20;14.60;99.90
51007;DHT22;37034;47.886;-3.904;2024-02-04T17:13:48;14.50;99.90
51007;DHT22;37034;47.886;-3.904;2024-02-04T17:16:16;14.50;99.90
51007;DHT22;37034;47.886;-3.904;2024-02-04T17:18:49;14.50;99.90
51007;DHT22;37034;47.886;-3.904;2024-02-04T17:21:19;14.40;99.90
51007;DHT22;37034;47.886;-3.904;2024-02-04T17:23:50;14.30;99.90
51007;DHT22;37034;47.886;-3.904;2024-02-04T17:26:22;14.30;99.90
51007;DHT22;37034;47.886;-3.904;2024-02-04T17:28:51;14.30;99.90
51007;DHT22;37034;47.886;-3.904;2024-02-04T17:31:17;14.30;99.90
51007;DHT22;37034;47.886;-3.904;2024-02-04T17:33:43;14.30;99.90
51007;DHT22;37034;47.886;-3.904;2024-02-04T17:36:09;14.30;99.90
51007;DHT22;37034;47.886;-3.904;2024-02-04T17:38:34;14.30;99.90
51007;DHT22;37034;47.886;-3.904;2024-02-04T17:41:01;14.30;99.90
51007;DHT22;37034;47.886;-3.904;2024-02-04T17:43:28;14.20;99.90
51007;DHT22;37034;47.886;-3.904;2024-02-04T17:45:53;14.20;99.90
51007;DHT22;37034;47.886;-3.904;2024-02-04T17:48:20;14.20;99.90
51007;DHT22;37034;47.886;-3.904;2024-02-04T17:50:45;14.10;99.90
51007;DHT22;37034;47.886;-3.904;2024-02-04T17:53:11;14.10;99.90
51007;DHT22;37034;47.886;-3.904;2024-02-04T17:55:37;14.10;99.90
51007;DHT22;37034;47.886;-3.904;2024-02-04T17:58:04;14.10;99.90
51007;DHT22;37034;47.886;-3.904;2024-02-04T18:00:31;14.20;99.90
51007;DHT22;37034;47.886;-3.904;2024-02-04T18:02:58;14.20;99.90
51007;DHT22;37034;47.886;-3.904;2024-02-04T18:05:24;14.10;99.90
51007;DHT22;37034;47.886;-3.904;2024-02-04T18:07:50;14.10;99.90
51007;DHT22;37034;47.886;-3.904;2024-02-04T18:10:18;14.00;99.90
51007;DHT22;37034;47.886;-3.904;2024-02-04T18:12:43;14.00;99.90
51007;DHT22;37034;47.886;-3.904;2024-02-04T18:15:09;14.00;99.90
51007;DHT22;37034;47.886;-3.904;2024-02-04T18:17:36;14.10;99.90
51007;DHT22;37034;47.886;-3.904;2024-02-04T18:20:03;14.10;99.90
51007;DHT22;37034;47.886;-3.904;2024-02-04T18:22:34;14.10;99.90
51007;DHT22;37034;47.886;-3.904;2024-02-04T18:24:59;14.10;99.90
51007;DHT22;37034;47.886;-3.904;2024-02-04T18:27:25;14.20;99.90
51007;DHT22;37034;47.886;-3.904;2024-02-04T18:29:51;14.10;99.90
51007;DHT22;37034;47.886;-3.904;2024-02-04T18:32:18;14.20;99.90
51007;DHT22;37034;47.886;-3.904;2024-02-04T18:34:46;14.20;99.90
51007;DHT22;37034;47.886;-3.904;2024-02-04T18:37:11;14.20;99.90
51007;DHT22;37034;47.886;-3.904;2024-02-04T18:39:37;14.10;99.90
51007;DHT22;37034;47.886;-3.904;2024-02-04T18:42:03;14.00;99.90
51007;DHT22;37034;47.886;-3.904;2024-02-04T18:44:28;14.00;99.90
51007;DHT22;37034;47.886;-3.904;2024-02-04T18:46:55;14.10;99.90
51007;DHT22;37034;47.886;-3.904;2024-02-04T18:49:20;14.10;99.90
51007;DHT22;37034;47.886;-3.904;2024-02-04T18:51:46;14.10;99.90
51007;DHT22;37034;47.886;-3.904;2024-02-04T18:54:12;14.10;99.90
51007;DHT22;37034;47.886;-3.904;2024-02-04T18:56:43;14.10;99.90
51007;DHT22;37034;47.886;-3.904;2024-02-04T18:59:09;14.10;99.90
51007;DHT22;37034;47.886;-3.904;2024-02-04T19:01:36;14.10;99.90
51007;DHT22;37034;47.886;-3.904;2024-02-04T19:04:04;14.10;99.90
51007;DHT22;37034;47.886;-3.904;2024-02-04T19:06:30;14.10;99.90
51007;DHT22;37034;47.886;-3.904;2024-02-04T19:08:56;14.10;99.90
51007;DHT22;37034;47.886;-3.904;2024-02-04T19:11:21;14.10;99.90
51007;DHT22;37034;47.886;-3.904;2024-02-04T19:13:47;14.10;99.90
51007;DHT22;37034;47.886;-3.904;2024-02-04T19:16:23;14.10;99.90
51007;DHT22;37034;47.886;-3.904;2024-02-04T19:18:49;14.10;99.90
51007;DHT22;37034;47.886;-3.904;2024-02-04T19:21:15;14.10;99.90
51007;DHT22;37034;47.886;-3.904;2024-02-04T19:23:42;14.10;99.90
51007;DHT22;37034;47.886;-3.904;2024-02-04T19:26:08;14.20;99.90
51007;DHT22;37034;47.886;-3.904;2024-02-04T19:28:33;14.20;99.90
51007;DHT22;37034;47.886;-3.904;2024-02-04T19:30:59;14.20;99.90
51007;DHT22;37034;47.886;-3.904;2024-02-04T19:33:25;14.10;99.90
51007;DHT22;37034;47.886;-3.904;2024-02-04T19:35:51;14.10;99.90
51007;DHT22;37034;47.886;-3.904;2024-02-04T19:38:16;14.00;99.90
51007;DHT22;37034;47.886;-3.904;2024-02-04T19:40:42;14.00;99.90
51007;DHT22;37034;47.886;-3.904;2024-02-04T19:43:08;14.00;99.90
51007;DHT22;37034;47.886;-3.904;2024-02-04T19:45:33;14.00;99.90
51007;DHT22;37034;47.886;-3.904;2024-02-04T19:47:59;14.00;99.90
51007;DHT22;37034;47.886;-3.904;2024-02-04T19:50:25;14.10;99.90
51007;DHT22;37034;47.886;-3.904;2024-02-04T19:52:50;14.10;99.90
51007;DHT22;37034;47.886;-3.904;2024-02-04T19:55:16;14.10;99.90
51007;DHT22;37034;47.886;-3.904;2024-02-04T19:57:42;14.10;99.90
51007;DHT22;37034;47.886;-3.904;2024-02-04T20:00:08;14.10;99.90
51007;DHT22;37034;47.886;-3.904;2024-02-04T20:02:34;14.10;99.90
51007;DHT22;37034;47.886;-3.904;2024-02-04T20:04:59;14.10;99.90
51007;DHT22;37034;47.886;-3.904;2024-02-04T20:07:25;14.10;99.90
51007;DHT22;37034;47.886;-3.904;2024-02-04T20:09:52;14.10;99.90
51007;DHT22;37034;47.886;-3.904;2024-02-04T20:12:17;14.10;99.90
51007;DHT22;37034;47.886;-3.904;2024-02-04T20:14:44;14.10;99.90
51007;DHT22;37034;47.886;-3.904;2024-02-04T20:17:10;14.10;99.90
51007;DHT22;37034;47.886;-3.904;2024-02-04T20:19:36;14.10;99.90
51007;DHT22;37034;47.886;-3.904;2024-02-04T20:22:02;14.00;99.90
51007;DHT22;37034;47.886;-3.904;2024-02-04T20:24:27;14.00;99.90
51007;DHT22;37034;47.886;-3.904;2024-02-04T20:26:53;14.00;99.90
51007;DHT22;37034;47.886;-3.904;2024-02-04T20:29:18;14.00;99.90
51007;DHT22;37034;47.886;-3.904;2024-02-04T20:31:46;14.00;99.90
51007;DHT22;37034;47.886;-3.904;2024-02-04T20:34:14;14.00;99.90
51007;DHT22;37034;47.886;-3.904;2024-02-04T20:36:40;13.90;99.90
51007;DHT22;37034;47.886;-3.904;2024-02-04T20:39:06;13.90;99.90
51007;DHT22;37034;47.886;-3.904;2024-02-04T20:41:32;13.90;99.90
51007;DHT22;37034;47.886;-3.904;2024-02-04T20:43:58;14.00;99.90
51007;DHT22;37034;47.886;-3.904;2024-02-04T20:46:25;14.00;99.90
51007;DHT22;37034;47.886;-3.904;2024-02-04T20:48:52;14.00;99.90
51007;DHT22;37034;47.886;-3.904;2024-02-04T20:51:18;14.10;99.90
51007;DHT22;37034;47.886;-3.904;2024-02-04T20:53:44;14.10;99.90
51007;DHT22;37034;47.886;-3.904;2024-02-04T20:56:12;14.00;99.90
51007;DHT22;37034;47.886;-3.904;2024-02-04T20:58:38;13.90;99.90
51007;DHT22;37034;47.886;-3.904;2024-02-04T21:01:04;13.90;99.90
51007;DHT22;37034;47.886;-3.904;2024-02-04T21:03:32;13.90;99.90
51007;DHT22;37034;47.886;-3.904;2024-02-04T21:05:58;13.90;99.90
51007;DHT22;37034;47.886;-3.904;2024-02-04T21:08:24;13.90;99.90
51007;DHT22;37034;47.886;-3.904;2024-02-04T21:10:49;14.00;99.90
51007;DHT22;37034;47.886;-3.904;2024-02-04T21:13:15;14.00;99.90
51007;DHT22;37034;47.886;-3.904;2024-02-04T21:15:40;13.80;99.90
51007;DHT22;37034;47.886;-3.904;2024-02-04T21:18:06;13.80;99.90
51007;DHT22;37034;47.886;-3.904;2024-02-04T21:20:32;13.80;99.90
51007;DHT22;37034;47.886;-3.904;2024-02-04T21:22:58;13.80;99.90
51007;DHT22;37034;47.886;-3.904;2024-02-04T21:25:24;13.90;99.90
51007;DHT22;37034;47.886;-3.904;2024-02-04T21:27:50;13.90;99.90
51007;DHT22;37034;47.886;-3.904;2024-02-04T21:30:15;13.90;99.90
51007;DHT22;37034;47.886;-3.904;2024-02-04T21:32:44;13.90;99.90
51007;DHT22;37034;47.886;-3.904;2024-02-04T21:35:15;13.90;99.90
51007;DHT22;37034;47.886;-3.904;2024-02-04T21:37:40;13.90;99.90
51007;DHT22;37034;47.886;-3.904;2024-02-04T21:40:06;13.80;99.90
51007;DHT22;37034;47.886;-3.904;2024-02-04T21:42:35;13.80;99.90
51007;DHT22;37034;47.886;-3.904;2024-02-04T21:45:02;13.90;99.90
51007;DHT22;37034;47.886;-3.904;2024-02-04T21:47:28;13.90;99.90
51007;DHT22;37034;47.886;-3.904;2024-02-04T21:49:54;13.90;99.90
51007;DHT22;37034;47.886;-3.904;2024-02-04T21:52:22;13.90;99.90
51007;DHT22;37034;47.886;-3.904;2024-02-04T21:54:47;13.90;99.90
51007;DHT22;37034;47.886;-3.904;2024-02-04T21:57:13;13.90;99.90
51007;DHT22;37034;47.886;-3.904;2024-02-04T21:59:39;13.90;99.90
51007;DHT22;37034;47.886;-3.904;2024-02-04T22:02:05;13.90;99.90
51007;DHT22;37034;47.886;-3.904;2024-02-04T22:04:31;13.90;99.90
51007;DHT22;37034;47.886;-3.904;2024-02-04T22:06:56;13.90;99.90
51007;DHT22;37034;47.886;-3.904;2024-02-04T22:09:23;13.90;99.90
51007;DHT22;37034;47.886;-3.904;2024-02-04T22:11:49;14.00;99.90
51007;DHT22;37034;47.886;-3.904;2024-02-04T22:14:14;14.00;99.90
51007;DHT22;37034;47.886;-3.904;2024-02-04T22:16:41;14.00;99.90
51007;DHT22;37034;47.886;-3.904;2024-02-04T22:19:08;14.00;99.90
51007;DHT22;37034;47.886;-3.904;2024-02-04T22:21:34;14.00;99.90
51007;DHT22;37034;47.886;-3.904;2024-02-04T22:24:07;14.00;99.90
51007;DHT22;37034;47.886;-3.904;2024-02-04T22:26:33;14.00;99.90
51007;DHT22;37034;47.886;-3.904;2024-02-04T22:28:59;13.90;99.90
51007;DHT22;37034;47.886;-3.904;2024-02-04T22:31:24;13.90;99.90
51007;DHT22;37034;47.886;-3.904;2024-02-04T22:33:50;13.80;99.90
51007;DHT22;37034;47.886;-3.904;2024-02-04T22:36:16;13.80;99.90
51007;DHT22;37034;47.886;-3.904;2024-02-04T22:38:41;13.70;99.90
51007;DHT22;37034;47.886;-3.904;2024-02-04T22:41:07;13.70;99.90
51007;DHT22;37034;47.886;-3.904;2024-02-04T22:43:35;13.60;99.90
51007;DHT22;37034;47.886;-3.904;2024-02-04T22:46:01;13.60;99.90
51007;DHT22;37034;47.886;-3.904;2024-02-04T22:48:28;13.50;99.90
51007;DHT22;37034;47.886;-3.904;2024-02-04T22:50:54;13.50;99.90
51007;DHT22;37034;47.886;-3.904;2024-02-04T22:53:20;13.50;99.90
51007;DHT22;37034;47.886;-3.904;2024-02-04T22:55:45;13.50;99.90
51007;DHT22;37034;47.886;-3.904;2024-02-04T22:58:11;13.50;99.90
51007;DHT22;37034;47.886;-3.904;2024-02-04T23:00:37;13.40;99.90
51007;DHT22;37034;47.886;-3.904;2024-02-04T23:03:10;13.30;99.90
51007;DHT22;37034;47.886;-3.904;2024-02-04T23:05:36;13.30;99.90
51007;DHT22;37034;47.886;-3.904;2024-02-04T23:08:02;13.40;99.90
51007;DHT22;37034;47.886;-3.904;2024-02-04T23:10:27;13.40;99.90
51007;DHT22;37034;47.886;-3.904;2024-02-04T23:12:54;13.40;99.90
51007;DHT22;37034;47.886;-3.904;2024-02-04T23:15:20;13.40;99.90
51007;DHT22;37034;47.886;-3.904;2024-02-04T23:17:46;13.40;99.90
51007;DHT22;37034;47.886;-3.904;2024-02-04T23:20:12;13.40;99.90
51007;DHT22;37034;47.886;-3.904;2024-02-04T23:22:38;13.50;99.90
51007;DHT22;37034;47.886;-3.904;2024-02-04T23:25:04;13.40;99.90
51007;DHT22;37034;47.886;-3.904;2024-02-04T23:27:30;13.40;99.90
51007;DHT22;37034;47.886;-3.904;2024-02-04T23:29:56;13.40;99.90
51007;DHT22;37034;47.886;-3.904;2024-02-04T23:32:22;13.40;99.90
51007;DHT22;37034;47.886;-3.904;2024-02-04T23:34:49;13.40;99.90
51007;DHT22;37034;47.886;-3.904;2024-02-04T23:37:15;13.30;99.90
51007;DHT22;37034;47.886;-3.904;2024-02-04T23:39:41;13.30;99.90
51007;DHT22;37034;47.886;-3.904;2024-02-04T23:42:07;13.30;99.90
51007;DHT22;37034;47.886;-3.904;2024-02-04T23:44:32;13.30;99.90
51007;DHT22;37034;47.886;-3.904;2024-02-04T23:46:59;13.30;99.90
51007;DHT22;37034;47.886;-3.904;2024-02-04T23:49:25;13.30;99.90
51007;DHT22;37034;47.886;-3.904;2024-02-04T23:51:50;13.30;99.90
51007;DHT22;37034;47.886;-3.904;2024-02-04T23:54:16;13.30;99.90
51007;DHT22;37034;47.886;-3.904;2024-02-04T23:56:42;13.30;99.90
51007;DHT22;37034;47.886;-3.904;2024-02-04T23:59:08;13.30;99.90
